Time;durP1;ratioP1;P1;durP2;ratioP2;P2;SDS_P1;SDS_P2;PMS_P1;PMS_P2;Temp;Humidity;BMP_temperature;BMP_pressure;BME280_temperature;BME280_humidity;BME280_pressure;Samples;Min_cycle;Max_cycle;Signal;HPM_P1;HPM_P2
2023/05/21 00:00:50;;;;;;;9.18;7.97;;;15.80;99.90;;;;;;5039969;28;20046;-76
2023/05/21 00:03:17;;;;;;;9.18;7.95;;;15.80;99.90;;;;;;5043040;28;20563;-76
2023/05/21 00:05:45;;;;;;;11.32;8.00;;;15.80;99.90;;;;;;5045218;28;20465;-76
2023/05/21 00:08:13;;;;;;;12.48;7.93;;;15.70;99.90;;;;;;5044474;28;20080;-77
2023/05/21 00:10:39;;;;;;;11.55;8.60;;;15.70;99.90;;;;;;5040038;28;20095;-77
2023/05/21 00:13:07;;;;;;;9.68;8.52;;;15.70;99.90;;;;;;5040523;28;20048;-76
2023/05/21 00:15:35;;;;;;;12.02;9.00;;;15.70;99.90;;;;;;5040429;28;20046;-76
2023/05/21 00:18:02;;;;;;;12.10;9.35;;;15.70;99.90;;;;;;5041887;28;20077;-76
2023/05/21 00:20:31;;;;;;;13.10;9.32;;;15.60;99.90;;;;;;5029588;28;20041;-76
2023/05/21 00:23:01;;;;;;;11.10;8.63;;;15.60;99.90;;;;;;5034407;28;20037;-75
2023/05/21 00:25:28;;;;;;;9.23;8.23;;;15.60;99.90;;;;;;5036448;28;20124;-76
2023/05/21 00:27:55;;;;;;;9.95;8.27;;;15.60;99.90;;;;;;5040731;28;20421;-76
2023/05/21 00:30:22;;;;;;;12.05;8.63;;;15.60;99.90;;;;;;5041628;28;20544;-77
2023/05/21 00:32:49;;;;;;;15.88;10.65;;;15.60;99.90;;;;;;5044249;28;20048;-77
2023/05/21 00:35:16;;;;;;;13.48;10.55;;;15.50;99.90;;;;;;5043006;28;20040;-77
2023/05/21 00:37:43;;;;;;;12.43;10.10;;;15.50;99.90;;;;;;5045890;28;20038;-76
2023/05/21 00:40:10;;;;;;;13.73;10.95;;;15.50;99.90;;;;;;5037792;28;20045;-76
2023/05/21 00:42:40;;;;;;;13.55;10.85;;;15.50;99.90;;;;;;5040775;28;20041;-75
2023/05/21 00:45:08;;;;;;;14.00;10.73;;;15.50;99.90;;;;;;5041987;28;20505;-76
2023/05/21 00:47:35;;;;;;;11.88;10.50;;;15.40;99.90;;;;;;5041262;28;20049;-76
2023/05/21 00:50:03;;;;;;;12.30;9.80;;;15.40;99.90;;;;;;5041584;28;20064;-76
2023/05/21 00:52:30;;;;;;;12.88;9.68;;;15.40;99.90;;;;;;5043986;28;20049;-76
2023/05/21 00:54:57;;;;;;;12.98;10.85;;;15.30;99.90;;;;;;5036735;28;20137;-76
2023/05/21 00:57:25;;;;;;;11.77;9.57;;;15.30;99.90;;;;;;5021870;28;20072;-76
2023/05/21 00:59:53;;;;;;;12.38;9.32;;;15.30;99.90;;;;;;5040139;28;20041;-77
2023/05/21 01:02:22;;;;;;;10.68;8.95;;;15.30;99.90;;;;;;5042000;28;20044;-75
2023/05/21 01:04:53;;;;;;;12.18;9.18;;;15.30;99.90;;;;;;5030011;28;20153;-75
2023/05/21 01:07:20;;;;;;;11.05;9.60;;;15.30;99.90;;;;;;5047181;28;20044;-76
2023/05/21 01:09:47;;;;;;;10.70;9.43;;;15.20;99.90;;;;;;5036256;28;20053;-76
2023/05/21 01:12:16;;;;;;;13.05;10.07;;;15.20;99.90;;;;;;5036074;28;20084;-76
2023/05/21 01:14:43;;;;;;;12.85;10.45;;;15.20;99.90;;;;;;5023158;28;20128;-76
2023/05/21 01:17:11;;;;;;;10.38;9.25;;;15.20;99.90;;;;;;5040452;28;20085;-75
2023/05/21 01:19:39;;;;;;;12.27;8.95;;;15.10;99.90;;;;;;5040693;28;20059;-76
2023/05/21 01:22:07;;;;;;;10.38;8.52;;;15.10;99.90;;;;;;5045424;28;20687;-76
2023/05/21 01:24:34;;;;;;;13.57;9.65;;;15.10;99.90;;;;;;5037915;28;20467;-75
2023/05/21 01:27:02;;;;;;;12.25;9.98;;;15.10;99.90;;;;;;5033850;28;20049;-76
2023/05/21 01:29:29;;;;;;;11.68;8.75;;;15.10;99.90;;;;;;5044109;28;20045;-75
2023/05/21 01:32:10;;;;;;;10.25;9.25;;;15.20;99.90;;;;;;5039775;28;20060;-76
2023/05/21 01:34:46;;;;;;;10.70;9.60;;;15.10;99.90;;;;;;5041127;28;20128;-76
2023/05/21 01:37:29;;;;;;;11.85;9.77;;;15.10;99.90;;;;;;5047140;28;20081;-75
2023/05/21 01:40:01;;;;;;;12.68;10.00;;;15.20;99.90;;;;;;5035970;28;20045;-76
2023/05/21 01:42:30;;;;;;;13.18;11.27;;;15.20;99.90;;;;;;5036541;28;20444;-76
2023/05/21 01:44:59;;;;;;;13.65;10.98;;;15.10;99.90;;;;;;5042468;28;20080;-75
2023/05/21 01:47:30;;;;;;;17.17;12.27;;;15.20;99.90;;;;;;5041636;28;20080;-76
2023/05/21 01:49:59;;;;;;;16.60;11.52;;;15.10;99.90;;;;;;5022217;28;20041;-76
2023/05/21 01:52:26;;;;;;;17.23;14.68;;;15.20;99.90;;;;;;5047663;28;20055;-77
2023/05/21 01:54:53;;;;;;;17.73;14.35;;;15.10;99.90;;;;;;5041661;28;20042;-76
2023/05/21 01:57:20;;;;;;;13.50;11.45;;;15.20;99.90;;;;;;5041222;28;20040;-77
2023/05/21 01:59:47;;;;;;;13.40;10.63;;;15.10;99.90;;;;;;5046873;28;20099;-76
2023/05/21 02:02:14;;;;;;;11.43;9.85;;;15.10;99.90;;;;;;5045121;28;20080;-75
2023/05/21 02:04:41;;;;;;;12.75;10.27;;;15.20;99.90;;;;;;5045833;28;20048;-76
2023/05/21 02:07:09;;;;;;;12.23;9.73;;;15.10;99.90;;;;;;5049152;28;20500;-76
2023/05/21 02:09:35;;;;;;;10.70;9.60;;;15.10;99.90;;;;;;5027609;28;20076;-75
2023/05/21 02:12:02;;;;;;;12.00;9.75;;;15.10;99.90;;;;;;5039537;28;20076;-77
2023/05/21 02:14:29;;;;;;;11.43;10.07;;;15.10;99.90;;;;;;5047823;28;20041;-77
2023/05/21 02:16:56;;;;;;;13.50;10.23;;;15.10;99.90;;;;;;5045106;28;20045;-75
2023/05/21 02:19:23;;;;;;;12.50;11.15;;;15.10;99.90;;;;;;5042023;28;20047;-76
2023/05/21 02:21:50;;;;;;;16.52;10.93;;;15.00;99.90;;;;;;5044891;28;20041;-77
2023/05/21 02:24:17;;;;;;;13.85;11.25;;;15.00;99.90;;;;;;5043135;28;20053;-76
2023/05/21 02:26:43;;;;;;;13.82;11.30;;;15.00;99.90;;;;;;5038522;28;20100;-76
2023/05/21 02:29:10;;;;;;;13.20;11.63;;;14.90;99.90;;;;;;5047318;28;20667;-76
2023/05/21 02:31:37;;;;;;;15.82;13.23;;;14.90;99.90;;;;;;5045549;28;20048;-76
2023/05/21 02:34:03;;;;;;;12.88;11.30;;;14.90;99.90;;;;;;5044712;28;20079;-76
2023/05/21 02:36:32;;;;;;;13.80;11.45;;;14.90;99.90;;;;;;5042218;28;20099;-77
2023/05/21 02:39:00;;;;;;;13.65;11.15;;;14.80;99.90;;;;;;5043327;28;20045;-76
2023/05/21 02:41:27;;;;;;;15.27;11.75;;;14.80;99.90;;;;;;5040202;28;20045;-76
2023/05/21 02:43:53;;;;;;;12.38;11.05;;;14.80;99.90;;;;;;5048223;28;20042;-77
2023/05/21 02:46:20;;;;;;;12.50;10.52;;;14.70;99.90;;;;;;5044848;28;20056;-76
2023/05/21 02:48:47;;;;;;;13.10;11.13;;;14.70;99.90;;;;;;5030127;28;20076;-76
2023/05/21 02:51:13;;;;;;;11.52;10.32;;;14.70;99.90;;;;;;5041518;28;20197;-77
2023/05/21 02:53:40;;;;;;;14.40;11.02;;;14.60;99.90;;;;;;5048759;28;20083;-76
2023/05/21 02:56:07;;;;;;;11.90;10.40;;;14.60;99.90;;;;;;5038331;28;20080;-76
2023/05/21 02:58:33;;;;;;;13.15;11.05;;;14.60;99.90;;;;;;5044810;28;20415;-76
2023/05/21 03:01:00;;;;;;;12.85;10.95;;;14.50;99.90;;;;;;5044424;28;20048;-76
2023/05/21 03:03:27;;;;;;;13.32;11.35;;;14.50;99.90;;;;;;5032281;28;20041;-76
2023/05/21 03:05:54;;;;;;;13.90;12.15;;;14.50;99.90;;;;;;5039848;28;20065;-76
2023/05/21 03:08:21;;;;;;;14.98;11.40;;;14.40;99.90;;;;;;5045653;28;20076;-76
2023/05/21 03:10:47;;;;;;;13.55;10.60;;;14.40;99.90;;;;;;5037695;28;20140;-77
2023/05/21 03:13:14;;;;;;;15.75;11.18;;;14.40;99.90;;;;;;5026094;28;20130;-76
2023/05/21 03:15:42;;;;;;;12.45;10.93;;;14.30;99.90;;;;;;5047053;28;20046;-77
2023/05/21 03:18:10;;;;;;;12.68;11.00;;;14.30;99.90;;;;;;5038843;28;20045;-76
2023/05/21 03:20:42;;;;;;;17.63;11.88;;;14.30;99.90;;;;;;5040238;28;20072;-77
2023/05/21 03:23:12;;;;;;;12.93;11.00;;;14.30;99.90;;;;;;5046005;28;20049;-77
2023/05/21 03:25:42;;;;;;;13.38;11.77;;;14.20;99.90;;;;;;5042785;28;20112;-77
2023/05/21 03:28:09;;;;;;;15.75;10.70;;;14.20;99.90;;;;;;5042926;28;20049;-77
2023/05/21 03:30:37;;;;;;;16.17;12.10;;;14.20;99.90;;;;;;5044871;28;20520;-76
2023/05/21 03:33:03;;;;;;;18.10;15.68;;;14.20;99.90;;;;;;5044430;28;20475;-76
2023/05/21 03:35:30;;;;;;;29.92;22.70;;;14.10;99.90;;;;;;5040522;28;20053;-77
2023/05/21 03:37:57;;;;;;;20.48;16.05;;;14.10;99.90;;;;;;5044318;28;20046;-76
2023/05/21 03:40:24;;;;;;;17.98;13.75;;;14.00;99.90;;;;;;5039986;28;20484;-76
2023/05/21 03:42:50;;;;;;;17.10;14.43;;;14.00;99.90;;;;;;5041588;28;20052;-77
2023/05/21 03:45:17;;;;;;;14.93;13.18;;;14.00;99.90;;;;;;5046211;28;20049;-77
2023/05/21 03:47:44;;;;;;;18.95;15.82;;;14.00;99.90;;;;;;5043532;28;20077;-76
2023/05/21 03:50:11;;;;;;;18.45;14.88;;;14.00;99.90;;;;;;5042427;28;20042;-76
2023/05/21 03:52:38;;;;;;;20.17;16.42;;;13.90;99.90;;;;;;5044304;28;20041;-77
2023/05/21 03:55:05;;;;;;;20.52;16.65;;;13.90;99.90;;;;;;5040731;28;20073;-76
2023/05/21 03:57:32;;;;;;;20.67;16.63;;;13.90;99.90;;;;;;5039163;28;20493;-77
2023/05/21 03:59:58;;;;;;;23.42;16.10;;;13.90;99.90;;;;;;5045857;28;20042;-76
2023/05/21 04:02:26;;;;;;;23.25;16.83;;;13.80;99.90;;;;;;5045402;28;20083;-76
2023/05/21 04:04:54;;;;;;;22.75;16.85;;;13.80;99.90;;;;;;5041272;28;20127;-77
2023/05/21 04:07:21;;;;;;;19.55;15.57;;;13.90;99.90;;;;;;5044883;28;20044;-76
2023/05/21 04:09:48;;;;;;;20.58;15.70;;;13.80;99.90;;;;;;5042651;28;20107;-75
2023/05/21 04:12:16;;;;;;;20.88;16.52;;;13.80;99.90;;;;;;5038997;28;20081;-76
2023/05/21 04:14:43;;;;;;;22.73;18.02;;;13.80;99.90;;;;;;5044495;28;20041;-77
2023/05/21 04:17:11;;;;;;;21.42;17.38;;;13.80;99.90;;;;;;5044204;28;20049;-76
2023/05/21 04:19:38;;;;;;;23.92;17.30;;;13.80;99.90;;;;;;5041646;28;20091;-77
2023/05/21 04:22:05;;;;;;;22.65;16.73;;;13.70;99.90;;;;;;5036840;28;20045;-77
2023/05/21 04:24:32;;;;;;;24.23;17.27;;;13.70;99.90;;;;;;5041547;28;20131;-77
2023/05/21 04:27:00;;;;;;;21.88;16.20;;;13.70;99.90;;;;;;5036805;28;20505;-77
2023/05/21 04:29:28;;;;;;;20.75;16.83;;;13.70;99.90;;;;;;5045710;28;20436;-77
2023/05/21 04:31:55;;;;;;;22.05;16.70;;;13.70;99.90;;;;;;5043293;28;20048;-77
2023/05/21 04:34:22;;;;;;;19.50;15.32;;;13.70;99.90;;;;;;5043404;28;20037;-77
2023/05/21 04:36:48;;;;;;;18.95;14.82;;;13.70;99.90;;;;;;5020639;28;20464;-77
2023/05/21 04:39:15;;;;;;;22.05;16.25;;;13.70;99.90;;;;;;5041198;28;20497;-77
2023/05/21 04:41:43;;;;;;;19.05;15.13;;;13.70;99.90;;;;;;5033411;28;20554;-76
2023/05/21 04:44:13;;;;;;;17.95;14.40;;;13.70;99.90;;;;;;5045168;28;20049;-77
2023/05/21 04:46:40;;;;;;;19.80;13.40;;;13.70;99.90;;;;;;5042141;28;20041;-77
2023/05/21 04:49:09;;;;;;;18.08;14.25;;;13.70;99.90;;;;;;5042718;28;20052;-77
2023/05/21 04:51:36;;;;;;;17.10;13.27;;;13.80;99.90;;;;;;5036486;28;20119;-77
2023/05/21 04:54:03;;;;;;;20.00;13.82;;;13.80;99.90;;;;;;5039398;28;20049;-75
2023/05/21 04:56:30;;;;;;;21.50;13.75;;;13.80;99.90;;;;;;5037440;28;20041;-76
2023/05/21 04:58:57;;;;;;;17.27;14.25;;;13.80;99.90;;;;;;5046399;28;20041;-77
2023/05/21 05:01:25;;;;;;;17.38;13.43;;;13.80;99.90;;;;;;5044954;28;20041;-77
2023/05/21 05:03:52;;;;;;;15.88;13.38;;;13.90;99.90;;;;;;5043034;28;20493;-77
2023/05/21 05:06:20;;;;;;;16.90;13.07;;;13.90;99.90;;;;;;5037365;28;20389;-77
2023/05/21 05:08:48;;;;;;;15.05;12.77;;;13.90;99.90;;;;;;5038948;28;20445;-77
2023/05/21 05:11:14;;;;;;;16.05;13.25;;;14.00;99.90;;;;;;5041015;28;20052;-77
2023/05/21 05:13:41;;;;;;;15.98;12.88;;;14.00;99.90;;;;;;5039921;28;20493;-77
2023/05/21 05:16:08;;;;;;;15.82;14.23;;;14.10;99.90;;;;;;5043102;28;20087;-77
2023/05/21 05:18:35;;;;;;;18.08;14.65;;;14.10;99.90;;;;;;5040531;28;20056;-77
2023/05/21 05:21:02;;;;;;;17.42;14.45;;;14.20;99.90;;;;;;5037853;28;20046;-77
2023/05/21 05:23:29;;;;;;;17.13;14.27;;;14.30;99.90;;;;;;5042981;28;20117;-77
2023/05/21 05:25:55;;;;;;;14.65;13.07;;;14.30;99.90;;;;;;5037992;28;20493;-77
2023/05/21 05:28:22;;;;;;;16.98;14.73;;;14.40;99.90;;;;;;5044633;28;20041;-77
2023/05/21 05:30:49;;;;;;;15.23;13.52;;;14.50;99.90;;;;;;5036442;28;20076;-77
2023/05/21 05:33:16;;;;;;;15.70;13.50;;;14.50;99.90;;;;;;5049654;28;20469;-77
2023/05/21 05:35:43;;;;;;;15.18;12.68;;;14.60;99.90;;;;;;5042594;28;20041;-77
2023/05/21 05:38:09;;;;;;;19.70;13.27;;;14.60;99.90;;;;;;5033641;28;20530;-77
2023/05/21 05:40:36;;;;;;;15.02;13.23;;;14.70;99.90;;;;;;5029410;28;20113;-77
2023/05/21 05:43:03;;;;;;;15.45;12.68;;;14.70;99.90;;;;;;5043067;28;20049;-78
2023/05/21 05:45:30;;;;;;;16.92;14.07;;;14.80;99.90;;;;;;5048299;28;20092;-77
2023/05/21 05:47:56;;;;;;;16.35;14.27;;;14.90;99.90;;;;;;5047971;28;20136;-77
2023/05/21 05:50:23;;;;;;;17.25;14.18;;;14.90;99.90;;;;;;5044518;28;20091;-77
2023/05/21 05:52:50;;;;;;;15.82;12.73;;;15.00;99.90;;;;;;5043718;28;20071;-77
2023/05/21 05:55:16;;;;;;;18.20;14.88;;;15.00;99.90;;;;;;5045105;28;20575;-77
2023/05/21 05:57:43;;;;;;;15.88;14.18;;;15.10;99.90;;;;;;5044962;28;20077;-78
2023/05/21 06:00:11;;;;;;;17.58;14.80;;;15.20;99.90;;;;;;5047643;28;20464;-77
2023/05/21 06:02:38;;;;;;;16.90;15.00;;;15.20;99.90;;;;;;5048093;28;20052;-77
2023/05/21 06:05:05;;;;;;;16.70;14.88;;;15.30;99.90;;;;;;5047714;28;20049;-78
2023/05/21 06:07:32;;;;;;;18.88;15.70;;;15.40;99.90;;;;;;5040875;28;20053;-77
2023/05/21 06:09:59;;;;;;;20.42;17.17;;;15.50;99.90;;;;;;5048253;28;20088;-77
2023/05/21 06:12:26;;;;;;;28.20;18.65;;;15.60;99.90;;;;;;5035239;28;20084;-77
2023/05/21 06:14:52;;;;;;;23.98;17.10;;;15.60;99.90;;;;;;5047158;28;20049;-78
2023/05/21 06:17:19;;;;;;;24.23;20.50;;;15.70;99.90;;;;;;5049530;28;20409;-77
2023/05/21 06:19:46;;;;;;;28.80;22.02;;;15.80;99.90;;;;;;5045347;28;20132;-77
2023/05/21 06:22:13;;;;;;;26.85;21.48;;;15.80;99.90;;;;;;5038263;28;20076;-78
2023/05/21 06:24:39;;;;;;;29.25;21.67;;;15.80;99.90;;;;;;5042237;28;20488;-77
2023/05/21 06:27:06;;;;;;;29.55;23.02;;;15.80;99.90;;;;;;5042712;28;20489;-76
2023/05/21 06:29:33;;;;;;;34.95;23.55;;;15.80;99.90;;;;;;5045066;28;20045;-77
2023/05/21 06:32:00;;;;;;;29.20;23.38;;;15.80;99.90;;;;;;5040231;28;20461;-77
2023/05/21 06:34:27;;;;;;;27.75;21.90;;;15.80;99.90;;;;;;5044373;28;20045;-77
2023/05/21 06:36:54;;;;;;;28.38;23.52;;;15.80;99.90;;;;;;5022828;28;20463;-77
2023/05/21 06:39:21;;;;;;;31.92;24.10;;;15.80;99.90;;;;;;5044760;28;20095;-77
2023/05/21 06:41:47;;;;;;;29.90;22.90;;;15.80;99.90;;;;;;5041613;28;20105;-77
2023/05/21 06:44:15;;;;;;;27.67;21.95;;;15.80;99.90;;;;;;5045347;28;20088;-77
2023/05/21 06:46:44;;;;;;;31.98;23.73;;;15.90;99.90;;;;;;5047303;28;20140;-77
2023/05/21 06:49:12;;;;;;;30.90;23.58;;;15.90;99.90;;;;;;5046876;28;20060;-77
2023/05/21 06:51:40;;;;;;;28.48;21.60;;;15.90;99.90;;;;;;5035593;28;20056;-77
2023/05/21 06:54:06;;;;;;;29.83;22.65;;;15.90;99.90;;;;;;5042293;28;20533;-77
2023/05/21 06:56:33;;;;;;;27.05;22.20;;;15.90;99.90;;;;;;5042085;28;20115;-77
2023/05/21 06:59:00;;;;;;;30.48;23.77;;;15.90;99.90;;;;;;5044261;28;20080;-76
2023/05/21 07:01:27;;;;;;;30.08;22.90;;;16.00;99.90;;;;;;5032685;28;20543;-77
2023/05/21 07:03:53;;;;;;;29.90;24.15;;;15.90;99.90;;;;;;5043436;28;20041;-77
2023/05/21 07:06:21;;;;;;;31.75;23.27;;;16.00;99.90;;;;;;5040476;28;20041;-78
2023/05/21 07:08:48;;;;;;;31.08;23.77;;;16.00;99.90;;;;;;5042068;28;20096;-77
2023/05/21 07:11:15;;;;;;;29.35;23.83;;;16.00;99.90;;;;;;5043821;28;20068;-77
2023/05/21 07:13:42;;;;;;;30.15;22.88;;;16.10;99.90;;;;;;5042954;28;20103;-78
2023/05/21 07:16:08;;;;;;;31.40;24.80;;;16.10;99.90;;;;;;5044638;28;20401;-77
2023/05/21 07:18:36;;;;;;;29.88;23.25;;;16.20;99.90;;;;;;5037308;28;20645;-78
2023/05/21 07:21:03;;;;;;;32.90;23.20;;;16.30;99.90;;;;;;5040820;28;20112;-77
2023/05/21 07:23:29;;;;;;;30.15;23.38;;;16.30;99.90;;;;;;5024866;28;20135;-76
2023/05/21 07:25:56;;;;;;;29.83;23.75;;;16.40;99.90;;;;;;5042068;28;20084;-77
2023/05/21 07:28:23;;;;;;;29.40;24.08;;;16.50;99.90;;;;;;5044264;28;20145;-77
2023/05/21 07:30:49;;;;;;;29.50;23.67;;;16.50;99.90;;;;;;5043794;28;20052;-77
2023/05/21 07:33:19;;;;;;;31.85;24.25;;;16.50;99.90;;;;;;5049008;28;20049;-76
2023/05/21 07:35:46;;;;;;;33.10;23.67;;;16.50;99.90;;;;;;5040287;28;20045;-77
2023/05/21 07:38:12;;;;;;;30.73;24.45;;;16.60;99.90;;;;;;5038125;28;20049;-76
2023/05/21 07:40:39;;;;;;;36.75;25.13;;;16.60;99.90;;;;;;5043149;28;20108;-77
2023/05/21 07:43:06;;;;;;;30.25;22.60;;;16.60;99.90;;;;;;5043593;28;20099;-77
2023/05/21 07:45:33;;;;;;;28.60;24.05;;;16.70;99.90;;;;;;5044249;28;20111;-77
2023/05/21 07:48:00;;;;;;;30.73;24.02;;;16.80;99.90;;;;;;5038239;28;20136;-76
2023/05/21 07:50:27;;;;;;;30.88;24.52;;;16.80;99.90;;;;;;5040375;28;20132;-77
2023/05/21 07:52:53;;;;;;;30.25;23.23;;;17.00;99.90;;;;;;5036177;28;20096;-77
2023/05/21 07:55:20;;;;;;;28.75;22.48;;;17.00;99.90;;;;;;5045402;28;20041;-77
2023/05/21 07:57:48;;;;;;;27.83;23.13;;;17.10;99.90;;;;;;5041222;28;20447;-77
2023/05/21 08:00:15;;;;;;;34.05;23.27;;;17.20;99.90;;;;;;5046329;28;20088;-78
2023/05/21 08:02:42;;;;;;;26.30;22.17;;;17.30;99.90;;;;;;5046902;28;20050;-78
2023/05/21 08:05:09;;;;;;;26.58;21.60;;;17.40;99.90;;;;;;5043832;28;20045;-78
2023/05/21 08:07:37;;;;;;;31.23;21.88;;;17.50;99.90;;;;;;5041382;28;20049;-77
2023/05/21 08:10:04;;;;;;;25.35;20.58;;;17.60;99.90;;;;;;5046373;28;20103;-77
2023/05/21 08:12:31;;;;;;;24.55;20.83;;;17.60;99.90;;;;;;5042706;28;20079;-77
2023/05/21 08:14:58;;;;;;;26.23;21.65;;;17.70;99.90;;;;;;5033533;28;20041;-77
2023/05/21 08:17:27;;;;;;;27.65;21.73;;;17.80;99.90;;;;;;5044434;28;20390;-76
2023/05/21 08:19:53;;;;;;;27.38;21.40;;;17.80;99.90;;;;;;5032669;28;20485;-76
2023/05/21 08:22:20;;;;;;;28.77;21.77;;;17.90;99.90;;;;;;5043219;28;20163;-77
2023/05/21 08:24:47;;;;;;;27.08;22.60;;;18.00;99.90;;;;;;5049780;28;20045;-78
2023/05/21 08:27:15;;;;;;;27.52;21.00;;;18.00;99.90;;;;;;5044552;28;20650;-77
2023/05/21 08:29:47;;;;;;;25.50;21.83;;;18.00;99.90;;;;;;5045720;28;20141;-77
2023/05/21 08:32:14;;;;;;;26.60;21.90;;;18.00;99.90;;;;;;5048289;28;20056;-77
2023/05/21 08:34:41;;;;;;;30.75;21.35;;;18.00;99.90;;;;;;5036335;28;20409;-76
2023/05/21 08:37:08;;;;;;;26.17;20.73;;;18.00;99.90;;;;;;5040285;28;20077;-77
2023/05/21 08:39:35;;;;;;;27.55;21.27;;;18.00;99.90;;;;;;5026045;28;20064;-77
2023/05/21 08:42:14;;;;;;;26.80;19.92;;;18.00;99.90;;;;;;5040818;28;20044;-76
2023/05/21 08:44:58;;;;;;;26.20;22.05;;;18.00;99.90;;;;;;5044616;28;20090;-75
2023/05/21 08:47:28;;;;;;;24.55;20.13;;;18.10;99.90;;;;;;5043060;28;20127;-77
2023/05/21 08:49:56;;;;;;;30.27;23.13;;;18.10;99.90;;;;;;5046709;28;20057;-76
2023/05/21 08:52:25;;;;;;;28.85;21.35;;;18.10;99.90;;;;;;5022732;28;20045;-76
2023/05/21 08:54:53;;;;;;;28.10;22.98;;;18.10;99.90;;;;;;5047793;28;20460;-77
2023/05/21 08:57:23;;;;;;;25.15;20.60;;;18.10;99.90;;;;;;5045552;28;20076;-74
2023/05/21 08:59:50;;;;;;;30.52;22.90;;;18.20;99.90;;;;;;5043324;28;20492;-77
2023/05/21 09:02:18;;;;;;;22.88;20.30;;;18.20;99.90;;;;;;5038374;28;20049;-76
2023/05/21 09:04:48;;;;;;;24.83;19.45;;;18.20;99.90;;;;;;5046995;28;20044;-76
2023/05/21 09:07:15;;;;;;;24.15;19.02;;;18.30;99.90;;;;;;5039545;28;20054;-76
2023/05/21 09:09:57;;;;;;;22.33;19.40;;;18.30;99.90;;;;;;5028543;28;20118;-76
2023/05/21 09:12:26;;;;;;;23.08;20.23;;;18.40;99.90;;;;;;5023831;28;20415;-76
2023/05/21 09:14:55;;;;;;;25.67;19.50;;;18.40;99.90;;;;;;5043562;28;20420;-77
2023/05/21 09:17:23;;;;;;;25.25;19.45;;;18.50;99.90;;;;;;5044525;28;20083;-76
2023/05/21 09:20:13;;;;;;;25.70;18.75;;;18.50;99.90;;;;;;5041822;28;20047;-76
2023/05/21 09:22:48;;;;;;;24.38;18.48;;;18.60;99.90;;;;;;5018821;28;20045;-76
2023/05/21 09:25:20;;;;;;;24.02;19.08;;;18.60;99.90;;;;;;5038151;28;20076;-76
2023/05/21 09:27:47;;;;;;;20.65;18.17;;;18.60;99.90;;;;;;5036139;28;20118;-76
2023/05/21 09:30:16;;;;;;;22.10;19.73;;;18.70;99.90;;;;;;5047990;28;20472;-76
2023/05/21 09:32:44;;;;;;;23.63;19.70;;;18.70;99.90;;;;;;5046716;28;20098;-77
2023/05/21 09:35:13;;;;;;;23.92;18.15;;;18.80;99.90;;;;;;5038826;28;20045;-75
2023/05/21 09:37:46;;;;;;;22.55;19.23;;;18.80;99.90;;;;;;5041642;28;20041;-77
2023/05/21 09:40:17;;;;;;;23.40;18.42;;;18.90;99.90;;;;;;5026093;28;20042;-77
2023/05/21 09:42:46;;;;;;;22.25;17.45;;;18.90;99.90;;;;;;5042994;28;20119;-77
2023/05/21 09:45:24;;;;;;;21.67;17.50;;;18.90;99.90;;;;;;5042441;28;20128;-77
2023/05/21 09:47:53;;;;;;;23.85;17.88;;;18.90;99.90;;;;;;5043794;28;20049;-77
2023/05/21 09:50:28;;;;;;;26.13;18.90;;;18.90;99.90;;;;;;5022846;28;20512;-77
2023/05/21 09:52:55;;;;;;;21.65;17.45;;;18.90;99.90;;;;;;5033641;28;20052;-77
2023/05/21 09:55:22;;;;;;;21.88;18.05;;;18.90;99.90;;;;;;5030564;28;20053;-76
2023/05/21 09:57:51;;;;;;;23.63;18.77;;;19.00;99.90;;;;;;5042462;28;20042;-77
2023/05/21 10:00:26;;;;;;;25.95;17.90;;;19.00;99.90;;;;;;5042568;28;20099;-76
2023/05/21 10:02:55;;;;;;;25.73;19.02;;;19.00;99.90;;;;;;5028970;28;20083;-77
2023/05/21 10:05:28;;;;;;;23.33;17.30;;;19.00;99.90;;;;;;5039832;28;20063;-76
2023/05/21 10:08:00;;;;;;;20.65;15.85;;;19.00;99.90;;;;;;5036039;28;20463;-76
2023/05/21 10:10:29;;;;;;;23.08;19.23;;;19.00;99.90;;;;;;5044999;28;20045;-76
2023/05/21 10:13:05;;;;;;;20.42;17.17;;;19.10;99.90;;;;;;5024326;28;20071;-76
2023/05/21 10:15:41;;;;;;;22.90;16.17;;;19.10;99.90;;;;;;5041750;28;20042;-76
2023/05/21 10:18:09;;;;;;;22.80;15.60;;;19.20;99.90;;;;;;5051235;28;20090;-77
2023/05/21 10:20:37;;;;;;;19.90;16.60;;;19.30;99.90;;;;;;5043482;28;20056;-77
2023/05/21 10:23:05;;;;;;;19.80;15.85;;;19.30;99.90;;;;;;5038994;28;20583;-76
2023/05/21 10:25:32;;;;;;;19.67;16.55;;;19.40;99.90;;;;;;5048186;28;20083;-77
2023/05/21 10:27:59;;;;;;;21.80;15.82;;;19.40;99.90;;;;;;5046095;28;20502;-77
2023/05/21 10:30:26;;;;;;;22.08;18.40;;;19.50;99.90;;;;;;5044935;28;20044;-77
2023/05/21 10:32:55;;;;;;;25.65;19.30;;;19.60;99.90;;;;;;5048171;28;20045;-77
2023/05/21 10:35:23;;;;;;;23.67;17.52;;;19.60;99.90;;;;;;5042547;28;20122;-76
2023/05/21 10:37:50;;;;;;;19.23;16.58;;;19.60;99.90;;;;;;5039310;28;20113;-76
2023/05/21 10:40:17;;;;;;;18.48;16.42;;;19.60;99.90;;;;;;5047648;28;20463;-77
2023/05/21 10:43:10;;;;;;;22.13;16.88;;;19.60;99.90;;;;;;5043942;28;20045;-77
2023/05/21 10:45:56;;;;;;;21.10;14.35;;;19.60;99.90;;;;;;5041374;28;20132;-76
2023/05/21 10:48:49;;;;;;;17.92;16.02;;;19.70;99.90;;;;;;5049174;28;20045;-76
2023/05/21 10:51:49;;;;;;;21.23;16.02;;;19.80;99.90;;;;;;5042533;28;20071;-77
2023/05/21 10:54:54;;;;;;;19.10;16.77;;;19.80;99.90;;;;;;5041828;28;20049;-76
2023/05/21 10:57:46;;;;;;;19.27;16.55;;;19.80;99.90;;;;;;5044770;28;20084;-77
2023/05/21 11:00:16;;;;;;;21.48;17.75;;;19.90;99.90;;;;;;5042117;28;20068;-77
2023/05/21 11:02:44;;;;;;;21.42;15.60;;;19.90;99.90;;;;;;5046354;28;20114;-77
2023/05/21 11:05:11;;;;;;;19.83;15.90;;;19.90;99.90;;;;;;5042581;28;20088;-77
2023/05/21 11:07:56;;;;;;;19.55;15.77;;;19.90;99.90;;;;;;5036904;28;20045;-77
2023/05/21 11:10:33;;;;;;;18.42;14.73;;;20.00;99.90;;;;;;5047592;28;20050;-77
2023/05/21 11:13:15;;;;;;;20.33;15.23;;;20.00;99.90;;;;;;5039730;28;20512;-77
2023/05/21 11:15:57;;;;;;;21.13;15.10;;;20.10;99.90;;;;;;5042578;28;20493;-76
2023/05/21 11:18:37;;;;;;;18.45;14.65;;;20.10;99.90;;;;;;5048574;28;20045;-77
2023/05/21 11:21:14;;;;;;;18.65;14.85;;;20.20;99.90;;;;;;5037470;28;20045;-77
2023/05/21 11:23:55;;;;;;;21.73;15.65;;;20.20;99.90;;;;;;5048437;28;20042;-76
2023/05/21 11:26:23;;;;;;;17.33;14.75;;;20.30;99.90;;;;;;5048493;28;20133;-77
2023/05/21 11:29:05;;;;;;;19.85;15.32;;;20.20;99.90;;;;;;5043104;28;20049;-77
2023/05/21 11:31:39;;;;;;;21.13;15.38;;;20.30;99.90;;;;;;5040944;28;20103;-77
2023/05/21 11:34:13;;;;;;;16.70;14.23;;;20.30;99.90;;;;;;5042343;28;20088;-75
2023/05/21 11:36:42;;;;;;;21.20;15.70;;;20.40;99.90;;;;;;5036951;28;20045;-76
2023/05/21 11:39:11;;;;;;;17.05;14.73;;;20.40;99.90;;;;;;5041441;28;20072;-76
2023/05/21 11:41:55;;;;;;;17.88;15.02;;;20.50;99.90;;;;;;5043243;28;20366;-77
2023/05/21 11:44:41;;;;;;;19.48;14.93;;;20.50;99.90;;;;;;5043808;28;20080;-77
2023/05/21 11:47:10;;;;;;;18.20;14.30;;;20.60;99.90;;;;;;5043052;28;20126;-77
2023/05/21 11:49:38;;;;;;;18.33;15.18;;;20.60;99.90;;;;;;5040237;28;20054;-76
2023/05/21 11:52:06;;;;;;;19.33;14.18;;;20.70;99.90;;;;;;5035834;28;20509;-77
2023/05/21 11:54:42;;;;;;;18.40;13.98;;;20.70;99.90;;;;;;5030466;28;20063;-76
2023/05/21 11:57:09;;;;;;;18.02;13.93;;;20.70;99.90;;;;;;5042477;28;20394;-77
2023/05/21 11:59:36;;;;;;;17.52;14.25;;;20.70;99.90;;;;;;5044096;28;20418;-77
2023/05/21 12:02:04;;;;;;;17.95;14.35;;;20.80;99.90;;;;;;5027475;28;20045;-77
2023/05/21 12:04:31;;;;;;;16.42;14.60;;;20.80;99.90;;;;;;5024322;28;20037;-77
2023/05/21 12:07:02;;;;;;;14.98;13.38;;;20.90;99.90;;;;;;5038064;28;20479;-76
2023/05/21 12:09:28;;;;;;;17.17;12.65;;;20.90;99.90;;;;;;5048338;28;20334;-77
2023/05/21 12:11:55;;;;;;;16.90;14.02;;;20.90;99.90;;;;;;5042516;28;20045;-77
2023/05/21 12:14:22;;;;;;;19.77;14.75;;;21.00;99.90;;;;;;5043196;28;20107;-77
2023/05/21 12:16:50;;;;;;;19.98;16.60;;;21.00;99.90;;;;;;5032755;28;20041;-76
2023/05/21 12:19:17;;;;;;;17.42;14.50;;;21.10;99.90;;;;;;5044555;28;20046;-76
2023/05/21 12:21:44;;;;;;;16.80;13.88;;;21.20;99.90;;;;;;5038340;28;20124;-76
2023/05/21 12:24:11;;;;;;;16.77;14.68;;;21.30;99.90;;;;;;5041453;28;20076;-77
2023/05/21 12:26:40;;;;;;;22.10;16.05;;;21.40;99.90;;;;;;5045908;28;20448;-76
2023/05/21 12:29:07;;;;;;;22.48;16.50;;;21.40;99.90;;;;;;5041740;28;20467;-77
2023/05/21 12:31:47;;;;;;;16.20;14.38;;;21.50;99.90;;;;;;5040676;28;20421;-77
2023/05/21 12:34:17;;;;;;;18.03;15.17;;;21.60;99.90;;;;;;5046913;28;20783;-77
2023/05/21 12:36:50;;;;;;;17.48;13.20;;;21.70;99.90;;;;;;5037485;28;20080;-76